createdAt,value
2019-02-15T00:02:24.613Z,10.07
2019-02-15T00:08:19.610Z,11.89
2019-02-15T00:14:14.628Z,9.13
2019-02-15T00:20:09.648Z,10.64
2019-02-15T00:26:04.618Z,9.96
2019-02-15T00:31:59.633Z,9.58
2019-02-15T00:37:54.611Z,8.7
2019-02-15T00:43:49.624Z,8.82
2019-02-15T00:49:44.696Z,8.42
2019-02-15T00:55:39.632Z,8.37
2019-02-15T01:01:34.653Z,7.53
2019-02-15T01:07:29.637Z,7.66
2019-02-15T01:13:30.873Z,8.51
2019-02-15T01:19:19.701Z,7.36
2019-02-15T01:25:14.754Z,8.21
2019-02-15T01:31:09.677Z,9.2
2019-02-15T01:37:04.670Z,8.9
2019-02-15T01:42:59.690Z,8.87
2019-02-15T01:48:54.691Z,9.27
2019-02-15T01:54:49.697Z,8.02
2019-02-15T02:00:44.698Z,6.49
2019-02-15T02:06:39.716Z,6.78
2019-02-15T02:12:34.732Z,8.06
2019-02-15T02:18:29.708Z,8.07
2019-02-15T02:24:24.735Z,7.85
2019-02-15T02:30:19.726Z,7.51
2019-02-15T02:36:14.723Z,6.88
2019-02-15T02:42:09.747Z,7.67
2019-02-15T02:48:04.737Z,7.04
2019-02-15T02:53:59.768Z,8.16
2019-02-15T02:59:54.799Z,8.21
2019-02-15T03:05:49.766Z,7.12
2019-02-15T03:11:44.774Z,6.64
2019-02-15T03:17:39.807Z,7.7
2019-02-15T03:23:34.781Z,8.31
2019-02-15T03:29:29.775Z,8.34
2019-02-15T03:35:24.794Z,8.97
2019-02-15T03:41:19.812Z,9.17
2019-02-15T03:47:14.787Z,9.15
2019-02-15T03:53:09.803Z,9.53
2019-02-15T03:59:04.846Z,9.03
2019-02-15T04:04:59.807Z,8.15
2019-02-15T04:10:54.803Z,8.86
2019-02-15T04:16:49.824Z,8.7
2019-02-15T04:22:44.832Z,8.8
2019-02-15T04:28:39.827Z,7.58
2019-02-15T04:34:34.856Z,8.73
2019-02-15T04:40:29.855Z,9.28
2019-02-15T04:46:24.855Z,9.32
2019-02-15T04:52:19.861Z,8.36
2019-02-15T04:58:14.851Z,8.93
2019-02-15T05:04:09.848Z,10.67
2019-02-15T05:10:04.852Z,10.7
2019-02-15T05:15:59.879Z,10.6
2019-02-15T05:21:54.874Z,11.18
2019-02-15T05:27:49.877Z,10.78
2019-02-15T05:33:44.890Z,10.69
2019-02-15T05:39:39.892Z,8.1
2019-02-15T05:45:34.881Z,8.47
2019-02-15T05:51:29.923Z,9.41
2019-02-15T05:57:24.955Z,9.1
2019-02-15T06:03:19.936Z,9.34
2019-02-15T06:09:14.919Z,9.19
2019-02-15T06:15:14.945Z,9.87
2019-02-15T06:21:04.913Z,8.2
2019-02-15T06:26:59.951Z,9.04
2019-02-15T06:32:54.952Z,8.35
2019-02-15T06:38:49.938Z,8.04
2019-02-15T06:44:44.942Z,7.96
2019-02-15T06:50:40.005Z,10.51
2019-02-15T06:56:34.935Z,9.79
2019-02-15T07:02:29.944Z,10.52
2019-02-15T07:08:24.955Z,14.4
2019-02-15T07:14:20.909Z,12.04
2019-02-15T07:20:14.960Z,13.34
2019-02-15T07:26:09.984Z,11.52
2019-02-15T07:32:04.973Z,11.8
2019-02-15T07:37:59.996Z,12.23
2019-02-15T07:43:55.007Z,12.5
2019-02-15T07:49:49.980Z,14.55
2019-02-15T07:55:45.015Z,14.35
2019-02-15T08:01:40.046Z,14.82
2019-02-15T08:07:34.987Z,16.35
2019-02-15T08:13:30.015Z,15.21
2019-02-15T08:19:25.035Z,21.5
2019-02-15T08:25:20.016Z,19.29
2019-02-15T08:31:15.007Z,18.67
2019-02-15T08:37:10.036Z,19.81
2019-02-15T08:43:05.029Z,20.98
2019-02-15T08:49:00.032Z,23.3
2019-02-15T08:54:55.049Z,22.44
2019-02-15T09:00:50.145Z,24.9
2019-02-15T09:06:45.061Z,25.32
2019-02-15T09:12:40.064Z,25.69
2019-02-15T09:18:35.063Z,26.09
2019-02-15T09:24:30.063Z,26.25
2019-02-15T09:30:25.087Z,29.62
2019-02-15T09:36:20.134Z,28.91
2019-02-15T09:42:15.086Z,28.55
2019-02-15T09:48:10.097Z,29.24
2019-02-15T09:54:05.104Z,28.69
2019-02-15T10:00:00.274Z,29.07
2019-02-15T10:05:55.151Z,25.92
2019-02-15T10:11:50.149Z,36.55
2019-02-15T10:17:45.160Z,43.29
2019-02-15T10:23:40.173Z,52.31
2019-02-15T10:29:35.102Z,65.7
2019-02-15T10:35:30.139Z,81.5
2019-02-15T10:41:25.163Z,84.77
2019-02-15T10:47:24.845Z,82.27
2019-02-15T10:53:15.170Z,77.09
2019-02-15T10:59:11.209Z,65.98
2019-02-15T11:05:05.193Z,65.41
2019-02-15T11:11:00.169Z,62.87
2019-02-15T11:16:55.168Z,74.43
2019-02-15T11:22:50.183Z,62.22
2019-02-15T11:28:45.162Z,44.05
2019-02-15T11:34:40.202Z,34.68
2019-02-15T11:40:35.175Z,28.62
2019-02-15T11:46:30.197Z,25.04
2019-02-15T11:52:25.213Z,21.88
2019-02-15T11:58:20.198Z,23.4
2019-02-15T12:04:15.240Z,20.7
2019-02-15T12:10:10.237Z,20.5
2019-02-15T12:16:05.251Z,20.5
2019-02-15T12:22:00.212Z,19.06
2019-02-15T12:27:55.241Z,19.87
2019-02-15T12:33:50.239Z,18.48
2019-02-15T12:39:45.239Z,20.4
2019-02-15T12:45:40.275Z,21.1
2019-02-15T12:51:35.238Z,20.9
2019-02-15T12:57:30.281Z,19.29
2019-02-15T13:03:25.270Z,17.36
2019-02-15T13:09:20.278Z,16.63
2019-02-15T13:15:15.265Z,17.21
2019-02-15T13:21:10.272Z,18.08
2019-02-15T13:27:05.312Z,17.89
2019-02-15T13:33:00.284Z,18.13
2019-02-15T13:38:55.320Z,18.96
2019-02-15T13:44:50.346Z,19.86
2019-02-15T13:50:45.351Z,17.75
2019-02-15T13:56:40.574Z,18.42
2019-02-15T14:02:35.330Z,16.85
2019-02-15T14:08:30.331Z,16.54
2019-02-15T14:14:25.331Z,16.05
2019-02-15T14:20:20.323Z,16.55
2019-02-15T14:26:15.359Z,16.49
2019-02-15T14:32:10.348Z,17.15
2019-02-15T14:38:05.366Z,16.78
2019-02-15T14:44:00.404Z,16.32
2019-02-15T14:49:55.414Z,15.35
2019-02-15T14:55:50.369Z,15.35
2019-02-15T15:01:45.386Z,15.59
2019-02-15T15:07:40.383Z,16.72
2019-02-15T15:13:35.402Z,16.44
2019-02-15T15:19:30.380Z,6.58
2019-02-15T15:25:25.401Z,6.7
2019-02-15T15:31:21.923Z,7.67
2019-02-15T15:37:16.635Z,7.26
2019-02-15T15:43:10.465Z,7.03
2019-02-15T15:49:05.411Z,7.09
2019-02-15T15:55:00.410Z,6.94
2019-02-15T16:00:55.437Z,7.7
2019-02-15T16:06:50.444Z,8.5
2019-02-15T16:12:45.496Z,7.97
2019-02-15T16:18:40.470Z,7.28
2019-02-15T16:24:35.457Z,8.04
2019-02-15T16:30:30.461Z,8.73
2019-02-15T16:36:25.489Z,8.55
2019-02-15T16:42:20.489Z,8.3
2019-02-15T16:48:15.471Z,8.63
2019-02-15T16:54:10.490Z,8.86
2019-02-15T17:00:05.496Z,7.92
2019-02-15T17:06:00.492Z,8.24
2019-02-15T17:11:55.500Z,8.59
2019-02-15T17:17:50.501Z,9.26
2019-02-15T17:23:45.511Z,11.25
2019-02-15T17:29:40.572Z,13.55
2019-02-15T17:35:35.537Z,13.35
2019-02-15T17:41:30.535Z,15.35
2019-02-15T17:47:25.532Z,17.02
2019-02-15T17:53:20.548Z,14.69
2019-02-15T17:59:15.546Z,15.17
2019-02-15T18:05:10.559Z,14.36
2019-02-15T18:11:05.573Z,15.01
2019-02-15T18:17:00.561Z,15.39
2019-02-15T18:22:55.552Z,14.62
2019-02-15T18:28:50.595Z,13.99
2019-02-15T18:34:45.595Z,13.87
2019-02-15T18:40:40.586Z,13.78
2019-02-15T18:46:35.574Z,12.82
2019-02-15T18:52:30.605Z,14.15
2019-02-15T18:58:25.624Z,13.93
2019-02-15T19:04:20.599Z,12.55
2019-02-15T19:10:15.611Z,13.63
2019-02-15T19:16:10.606Z,15
2019-02-15T19:22:05.674Z,14.56
2019-02-15T19:28:00.606Z,18.4
2019-02-15T19:33:55.655Z,12.91
2019-02-15T19:39:50.612Z,12.14
2019-02-15T19:45:45.641Z,11.06
2019-02-15T19:51:40.652Z,10.74
2019-02-15T19:57:35.642Z,11.3
2019-02-15T20:03:30.668Z,10.16
2019-02-15T20:09:25.694Z,12.47
2019-02-15T20:15:20.701Z,11.15
2019-02-15T20:21:15.660Z,12.2
2019-02-15T20:27:10.672Z,14.07
2019-02-15T20:33:05.674Z,17.65
2019-02-15T20:39:00.747Z,11.86
2019-02-15T20:44:55.686Z,10.35
2019-02-15T20:50:50.706Z,9.24
2019-02-15T20:56:45.709Z,9.07
2019-02-15T21:02:40.697Z,10.63
2019-02-15T21:08:35.748Z,8.65
2019-02-15T21:14:30.716Z,7.9
2019-02-15T21:20:25.716Z,8.37
2019-02-15T21:26:20.704Z,7.13
2019-02-15T21:32:15.760Z,7.4
2019-02-15T21:38:10.731Z,9.22
2019-02-15T21:44:05.813Z,7.2
2019-02-15T21:50:00.769Z,7.49
2019-02-15T21:55:55.745Z,6.24
2019-02-15T22:01:50.761Z,6.67
2019-02-15T22:07:45.752Z,7.66
2019-02-15T22:13:40.782Z,6.59
2019-02-15T22:19:35.795Z,6.17
2019-02-15T22:25:30.799Z,6.37
2019-02-15T22:31:25.787Z,6.33
2019-02-15T22:37:20.855Z,6.13
2019-02-15T22:43:15.796Z,5.75
2019-02-15T22:49:10.862Z,5.33
2019-02-15T22:55:05.813Z,5.52
2019-02-15T23:01:00.814Z,5.64
2019-02-15T23:06:55.817Z,5.63
2019-02-15T23:12:50.859Z,4.92
2019-02-15T23:18:45.819Z,6.48
2019-02-15T23:24:40.866Z,6.01
2019-02-15T23:30:35.846Z,5.47
2019-02-15T23:36:30.845Z,5.27
2019-02-15T23:42:25.850Z,4.9
2019-02-15T23:48:20.870Z,4.51
2019-02-15T23:54:15.869Z,4.5
